Tiempo atmosférico en la estación meteorológica de Planoles, Girona (1149 m.)



Fecha
DESCASC
Temp. máxima en grados centígrados (hora)
DESCASC
Temp. mínima en grados centígrados (hora)
DESCASC
Temp. media en grados centígrados
DESCASC
Racha de viento máxima en m/sg (hora)
DESCASC
Velocidad máxima media en intervalos de 10 minutos(hora)
DESCASC
Precipitaciones diarias en mm
DESCASC
Precipitaciones de 00:00 a 06:00 en mm
DESCASC
Precipitaciones de 06:00 a 12:00 en mm
DESCASC
Precipitaciones de 12:00 a 18:00 en mm
DESCASC
Precipitaciones de 18:00 a 24:00 en mm
DESCASC
23-06-2019 28.4 (17:40) 11.6 (04:10) 20 8.33 (15:40) 5 (14:00) 0 0 0 0 0
22-06-2019 23.7 (19:20) 9.1 (06:00) 16.4 11.11 (10:20) 6.67 (12:50) 0 0 0 0 0
21-06-2019 19.3 (19:00) 10.8 (01:30) 15 5 (02:40) 3.33 (01:40) 2.6 0 0.4 2.2 0
20-06-2019 22.8 (14:00) 11.4 (00:00) 17.1 13.61 (17:40) 5.28 (17:40) 23.4 0 0.8 21 1.6
19-06-2019 -- (--) -- (--) -- -- (--) -- (--) -- 0 -- -- 0
18-06-2019 26.5 (15:50) 11.7 (00:00) 19.1 8.61 (11:50) 4.72 (15:30) 0 0 0 0 0
17-06-2019 25.2 (14:20) 10 (00:00) 17.6 9.72 (15:10) 5 (14:00) 0 0 0 0 0
16-06-2019 22.9 (17:30) 8.2 (00:00) 15.5 8.33 (15:50) 4.17 (14:20) 0 0 0 0 0
15-06-2019 22.2 (17:10) 10.1 (00:00) 16.2 8.61 (14:00) 3.89 (19:10) 0 0 0 0 0
14-06-2019 22.3 (18:30) 9.6 (00:00) 15.9 10 (12:30) 5 (14:30) 1 0 0.8 0.2 0
13-06-2019 21.1 (16:40) 3.6 (00:00) 12.4 8.89 (14:00) 4.44 (13:10) 0 0 0 0 0
12-06-2019 16.4 (17:40) 0.7 (00:00) 8.5 8.89 (14:40) 4.44 (14:50) 0 0 0 0 0
11-06-2019 12.2 (00:00) 3.2 (00:00) 7.7 7.5 (08:30) 2.78 (04:40) 21.8 1.6 12.8 5.4 2
10-06-2019 20.7 (15:00) 10.9 (00:00) 15.8 9.72 (17:00) 3.89 (16:50) 0 0 0 0 0
09-06-2019 24.3 (18:30) 12.1 (00:00) 18.2 7.22 (19:20) 3.89 (11:30) 0 0 0 0 0
08-06-2019 21.8 (14:10) 4.7 (00:00) 13.2 10 (15:50) 5.28 (15:10) 0 0 0 0 0
07-06-2019 20.6 (16:00) 7.1 (00:00) 13.9 11.39 (11:50) 5.56 (12:20) 0 0 0 0 0
06-06-2019 17.3 (14:20) 4.7 (00:00) 11 11.39 (19:30) 4.17 (11:40) 0 0 0 0 0
05-06-2019 19.8 (12:10) 9.2 (00:00) 14.5 11.39 (16:50) 6.39 (16:50) 0 0 0 0 0
04-06-2019 25.1 (15:40) 10.9 (00:00) 18 8.06 (17:10) 4.44 (15:00) 0 0 0 0 0
03-06-2019 25.7 (11:20) 11.5 (00:00) 18.6 10.83 (10:00) 5.28 (10:00) 0 0 0 0 0
02-06-2019 24.9 (14:00) 10.8 (00:00) 17.8 9.72 (14:20) 5.56 (14:20) 0 0 0 0 0
01-06-2019 23.9 (18:20) 9.9 (00:00) 16.9 7.78 (13:40) 4.44 (13:20) 0 0 0 0 0
31-05-2019 22.3 (15:20) 6.7 (00:00) 14.5 7.78 (13:40) 4.72 (13:50) 0 0 0 0 0
30-05-2019 21.3 (17:00) 5.1 (00:00) 13.2 8.61 (14:20) 5 (13:20) 0 0 0 0 0
29-05-2019 17.8 (15:10) 5.7 (00:00) 11.7 12.5 (18:40) 7.78 (19:20) 0 0 0 0 0
28-05-2019 16.9 (12:10) 6.4 (00:00) 11.6 9.44 (12:50) 5.83 (12:20) -- -- -- 0 0

Gráficas

Temp. máximas Temp. mínimas Temp. medias Precipitaciones Rachas de viento máximas Velocidades máximas media en intervalos de 10 minutos

Datos horarios

Fecha y hora oficial Temperatura (ºC) Velocidad del viento (km/h) Dirección del viento Racha (km/h) Dirección de racha Precipitación (mm) Presión (hPa) Tendencia (hPa) Humedad (%)
2019-06-26 23:00:00 21.1 10 Noroeste 17 Noroeste 0 -- -- 54
2019-06-26 22:00:00 22.5 8 Noroeste 14 Noroeste 0 -- -- 51
2019-06-26 21:00:00 26.4 0 Calma 8 Norte 0 -- -- 48
2019-06-26 20:00:00 29.2 3 Sudeste 10 Este 0 -- -- 39
2019-06-26 19:00:00 30.3 4 Sudeste 19 Este 0 -- -- 35
2019-06-26 18:00:00 30.9 10 Este 23 Este 0 -- -- 34
2019-06-26 17:00:00 31.3 13 Este 22 Sudeste 0 -- -- 32
2019-06-26 16:00:00 31.4 11 Este 23 Este 0 -- -- 30
2019-06-26 15:00:00 31 10 Este 23 Sudeste 0 -- -- 32
2019-06-26 14:00:00 30.5 13 Este 30 Este 0 -- -- 30
2019-06-26 13:00:00 30.6 14 Este 26 Este 0 -- -- 28
2019-06-26 12:00:00 29.9 12 Este 22 Sudeste 0 -- -- 30
2019-06-26 11:00:00 26.6 4 Sudeste 10 Sudeste 0 -- -- 46
2019-06-26 10:00:00 23.7 5 Sudeste 13 Nordeste 0 -- -- 55
2019-06-26 09:00:00 19.7 3 Norte 18 Nordeste 0 -- -- 59
2019-06-26 08:00:00 16.6 2 Oeste 9 Oeste 0 -- -- 62
2019-06-26 07:00:00 15.1 4 Norte 10 Noroeste 0 -- -- 57
2019-06-26 06:00:00 15.2 4 Este 18 Norte 0 -- -- 56
2019-06-26 05:00:00 15.5 6 Noroeste 14 Noroeste 0 -- -- 54
2019-06-26 04:00:00 16.1 6 Noroeste 16 Noroeste 0 -- -- 54
2019-06-26 03:00:00 16.4 9 Noroeste 17 Noroeste 0 -- -- 55
2019-06-26 02:00:00 16.7 6 Oeste 16 Noroeste 0 -- -- 56
2019-06-26 01:00:00 17.1 6 Noroeste 13 Noroeste 0 -- -- 59
2019-06-26 00:00:00 17.8 5 Noroeste 15 Noroeste 0 -- -- 64
2019-06-25 23:00:00 19.2 7 Noroeste 12 Noroeste 0 -- -- 68
2019-06-25 22:00:00 21.7 0 Calma 5 Sur 0 -- -- 63
2019-06-25 21:00:00 25 2 Este 7 Sudeste 0 -- -- 54
2019-06-25 20:00:00 28 3 Sur 17 Este 0 -- -- 47
2019-06-25 19:00:00 28.6 11 Este 24 Este 0 -- -- 42
2019-06-25 18:00:00 29.1 15 Este 23 Este 0 -- -- 42
2019-06-25 17:00:00 28.9 15 Este 28 Este 0 -- -- 43
2019-06-25 16:00:00 28.6 15 Este 27 Este 0 -- -- 41
2019-06-25 15:00:00 28.4 12 Este 27 Este 0 -- -- 43
2019-06-25 14:00:00 28 13 Este 27 Este 0 -- -- 44
2019-06-25 13:00:00 27.5 14 Este 25 Este 0 -- -- 43
2019-06-25 12:00:00 27 10 Este 25 Este 0 -- -- 41
2019-06-25 11:00:00 25.5 14 Este 25 Este 0 -- -- 42
2019-06-25 10:00:00 22.5 4 Este 9 Sudeste 0 -- -- 52
2019-06-25 09:00:00 18.6 4 Noroeste 15 Noroeste 0 -- -- 58
2019-06-25 08:00:00 16.3 5 Noroeste 16 Norte 0 -- -- 57
2019-06-25 07:00:00 16.2 6 Noroeste 14 Noroeste 0 -- -- 53
2019-06-25 06:00:00 16.7 10 Noroeste 21 Noroeste 0 -- -- 51
2019-06-25 05:00:00 16.1 9 Noroeste 18 Noroeste 0 -- -- 55
2019-06-25 04:00:00 15.3 6 Noroeste 16 Noroeste 0 -- -- 60
2019-06-25 03:00:00 15.3 10 Noroeste 18 Noroeste 0 -- -- 63
2019-06-25 02:00:00 14.7 9 Noroeste 15 Sudoeste 0 -- -- 71
2019-06-25 01:00:00 15.4 5 Noroeste 15 Noroeste 0 -- -- 71
2019-06-25 00:00:00 15.8 6 Noroeste 14 Noroeste 0 -- -- 71
2019-06-24 23:00:00 17.4 4 Noroeste 11 Noroeste 0 -- -- 65
2019-06-24 22:00:00 19.2 0 Calma 7 Noroeste 0 -- -- 65
2019-06-24 21:00:00 22 2 Este 9 Este 0 -- -- 57
2019-06-24 20:00:00 23.9 4 Este 21 Este 0 -- -- 48
2019-06-24 19:00:00 26 8 Este 21 Este 0 -- -- 44
2019-06-24 18:00:00 27.1 8 Este 19 Este 0 -- -- 40
2019-06-24 17:00:00 27.2 9 Este 23 Este 0 -- -- 38
2019-06-24 16:00:00 26.7 9 Sudeste 24 Sudeste 0 -- -- 38
2019-06-24 15:00:00 27.2 12 Este 24 Este 0 -- -- 37
2019-06-24 14:00:00 27.1 11 Este 27 Este 0 -- -- 29
2019-06-24 13:00:00 27 14 Este 27 Este 0 -- -- 33
2019-06-24 12:00:00 26.4 11 Este 26 Este 0 -- -- 37
2019-06-24 11:00:00 24.6 14 Este 23 Este 0 -- -- 50
2019-06-24 10:00:00 22.2 0 Calma 8 Sur 0 -- -- 58
2019-06-24 09:00:00 18.9 2 Oeste 9 Oeste 0 -- -- 67
2019-06-24 08:00:00 16.5 5 Noroeste 12 Noroeste 0 -- -- 70
2019-06-24 07:00:00 14.7 5 Oeste 15 Noroeste 0 -- -- 78
2019-06-24 06:00:00 14.4 7 Noroeste 14 Oeste 0 -- -- 81
2019-06-24 05:00:00 14.9 3 Noroeste 8 Noroeste 0 -- -- 80
2019-06-24 04:00:00 15.5 3 Norte 13 Noroeste 0 -- -- 78
2019-06-24 03:00:00 15.9 8 Noroeste 15 Noroeste 0 -- -- 78
2019-06-24 02:00:00 16.4 4 Oeste 14 Noroeste 0 -- -- 78
2019-06-24 01:00:00 17.1 7 Noroeste 17 Noroeste 0 -- -- 76
2019-06-24 00:00:00 17.6 8 Noroeste 14 Noroeste 0 -- -- 76
2019-06-23 23:00:00 18.9 8 Noroeste 12 Noroeste 0 -- -- 72
2019-06-23 22:00:00 20.9 3 Noroeste 8 Norte 0 -- -- 65
2019-06-23 21:00:00 23.2 3 Este 17 Este 0 -- -- 61
2019-06-23 20:00:00 26.1 10 Este 18 Este 0 -- -- 50
2019-06-23 19:00:00 27.6 8 Sudoeste 22 Sudoeste 0 -- -- 39
2019-06-23 18:00:00 28.3 9 Este 23 Este 0 -- -- 42
2019-06-23 17:00:00 28.3 8 Este 20 Este 0 -- -- 44
2019-06-23 16:00:00 27.1 9 Sudeste 30 Este 0 -- -- 48
2019-06-23 15:00:00 27 9 Sudeste 24 Este 0 -- -- 49
2019-06-23 14:00:00 26.5 18 Este 28 Este 0 -- -- 49
2019-06-23 13:00:00 25.8 10 Sudeste 21 Este 0 -- -- 52
2019-06-23 12:00:00 24.2 9 Este 21 Este 0 -- -- 55
2019-06-23 11:00:00 22.2 8 Sudeste 18 Este 0 -- -- 57
2019-06-23 10:00:00 19.9 4 Este 9 Sudeste 0 -- -- 59
2019-06-23 09:00:00 17.4 2 Sudeste 5 Sudeste 0 -- -- 65
2019-06-23 08:00:00 14.4 0 Calma 6 Nordeste 0 -- -- 72
2019-06-23 07:00:00 12 0 Calma 7 Oeste 0 -- -- 77
2019-06-23 06:00:00 11.7 0 Calma 6 Oeste 0 -- -- 77
2019-06-23 05:00:00 11.6 0 Calma 9 Este 0 -- -- 83
2019-06-23 04:00:00 11.7 3 Noroeste 6 Oeste 0 -- -- 80
2019-06-23 03:00:00 12.3 4 Noroeste 7 Noroeste 0 -- -- 85
2019-06-23 02:00:00 13.7 2 Noroeste 20 Noroeste 0 -- -- 82
2019-06-23 01:00:00 14 9 Noroeste 18 Noroeste 0 -- -- 82
2019-06-23 00:00:00 14.3 3 Norte 15 Oeste 0 -- -- 80
2019-06-22 23:00:00 15.3 4 Noroeste 9 Noroeste 0 -- -- 76
2019-06-22 22:00:00 17.4 3 Noroeste 9 Noroeste 0 -- -- 70
2019-06-22 21:00:00 20.5 0 Calma 14 Este 0 -- -- 63
2019-06-22 20:00:00 22.9 5 Este 22 Sudoeste 0 -- -- 53
2019-06-22 19:00:00 23.4 6 Sur 21 Sudeste 0 -- -- 47
2019-06-22 18:00:00 22.5 9 Este 19 Este 0 -- -- 48
2019-06-22 17:00:00 23 8 Este 22 Este 0 -- -- 48
2019-06-22 16:00:00 21.9 10 Este 28 Este 0 -- -- 55
2019-06-22 15:00:00 20.9 10 Este 29 Este 0 -- -- 59
2019-06-22 14:00:00 21.1 13 Este 33 Este 0 -- -- 59
2019-06-22 13:00:00 21.1 21 Este 36 Este 0 -- -- 61
2019-06-22 12:00:00 21.3 6 Noroeste 30 Oeste 0 -- -- 42
2019-06-22 11:00:00 19.5 19 Oeste 40 Oeste 0 -- -- 42
2019-06-22 10:00:00 18.5 19 Oeste 35 Oeste 0 -- -- 47
2019-06-22 09:00:00 15.5 5 Oeste 15 Sudoeste 0 -- -- 68
2019-06-22 08:00:00 11.7 0 Calma 5 Sudeste 0 -- -- 89
2019-06-22 07:00:00 9.1 0 Calma 7 Noroeste 0 -- -- 94
2019-06-22 06:00:00 9.1 4 Noroeste 7 Noroeste 0 -- -- 94
2019-06-22 05:00:00 9.4 2 Noroeste 6 Noroeste 0 -- -- 93
2019-06-22 04:00:00 9.9 0 Calma 5 Noroeste 0 -- -- 90
2019-06-22 03:00:00 10.9 2 Norte 11 Noroeste 0 -- -- 87
2019-06-22 02:00:00 11 3 Noroeste 8 Norte 0 -- -- 90
2019-06-22 01:00:00 11.5 5 Noroeste 11 Noroeste 0 -- -- 90
2019-06-22 00:00:00 12.6 4 Noroeste 12 Oeste 0 -- -- 87
2019-06-21 23:00:00 13.2 6 Noroeste 13 Noroeste 0 -- -- 86
2019-06-21 22:00:00 14.2 5 Oeste 14 Noroeste 0 -- -- 84
2019-06-21 21:00:00 15.3 6 Noroeste 11 Noroeste 0 -- -- 82
2019-06-21 20:00:00 18.6 4 Este 13 Este 0 -- -- 68
2019-06-21 19:00:00 19.3 5 Este 11 Sudeste 0 -- -- 65
2019-06-21 18:00:00 18.3 3 Este 6 Este 0 -- -- 72
2019-06-21 17:00:00 17.6 4 Oeste 10 Oeste 0 -- -- 73
2019-06-21 16:00:00 17.3 6 Sudoeste 13 Este 0 -- -- 75
2019-06-21 15:00:00 14.5 6 Este 12 Este 0.2 -- -- 93
2019-06-21 14:00:00 14.8 4 Sudoeste 15 Oeste 1.2 -- -- 91
2019-06-21 13:00:00 15.2 5 Este 13 Nordeste 0.8 -- -- 87
2019-06-21 12:00:00 15 6 Norte 16 Este 0.4 -- -- 84
2019-06-21 11:00:00 17.4 6 Este 13 Nordeste 0 -- -- 70
2019-06-21 10:00:00 17.1 2 Sudeste 6 Sudeste 0 -- -- 69
2019-06-21 09:00:00 14.8 0 Calma 13 Noroeste 0 -- -- 86
2019-06-21 08:00:00 12.8 4 Oeste 16 Noroeste 0 -- -- 90
2019-06-21 07:00:00 10.8 5 Oeste 13 Oeste 0 -- -- 94
2019-06-21 06:00:00 10.9 4 Noroeste 14 Noroeste 0 -- -- 93
2019-06-21 05:00:00 11.5 8 Oeste 17 Noroeste 0 -- -- 91
2019-06-21 04:00:00 11.7 10 Noroeste 17 Oeste 0 -- -- 91
2019-06-21 03:00:00 11.5 10 Noroeste 18 Noroeste 0 -- -- 92
2019-06-21 02:00:00 11.2 9 Noroeste 17 Noroeste 0 -- -- 92
2019-06-21 01:00:00 11 9 Noroeste 15 Noroeste 0 -- -- 92
2019-06-21 00:00:00 11.7 8 Noroeste 16 Noroeste 0 -- -- 91
2019-06-20 23:00:00 13 6 Noroeste 43 Sudoeste 0.4 -- -- 88
2019-06-20 22:00:00 13 9 Noroeste 16 Noroeste 0 -- -- 94
2019-06-20 21:00:00 12.9 4 Noroeste 14 Noroeste 0 -- -- 93
2019-06-20 20:00:00 12.9 5 Noroeste 12 Noroeste 0 -- -- 92
2019-06-20 19:00:00 12.3 3 Norte 12 Sudoeste 1.2 -- -- 94
2019-06-20 18:00:00 11.6 4 Noroeste 49 Noroeste 21 -- -- 90
2019-06-20 17:00:00 21.1 9 Sudeste 34 Este 0 -- -- 61
2019-06-20 16:00:00 22.8 10 Sudeste 27 Este 0 -- -- 52
2019-06-20 15:00:00 22.1 9 Este 22 Este 0 -- -- 56
2019-06-20 14:00:00 22.8 10 Este 27 Este 0 -- -- 54
2019-06-20 13:00:00 21.5 4 Este 15 Este 0 -- -- 59
2019-06-20 12:00:00 20.5 6 Este 13 Este 0 -- -- 64
2019-06-20 11:00:00 18.7 0 Calma 6 Sudoeste 0.2 -- -- 75
2019-06-20 10:00:00 16.6 0 Calma 5 Sudeste 0.2 -- -- 77
2019-06-20 09:00:00 14.9 0 Calma 10 Oeste 0.2 -- -- 90
2019-06-20 08:00:00 13.6 5 Noroeste 9 Noroeste 0 -- -- 89
2019-06-20 07:00:00 13.2 3 Noroeste 13 Noroeste 0.2 -- -- 90
2019-06-20 06:00:00 13.2 6 Noroeste 12 Noroeste 0 -- -- 89
2019-06-20 05:00:00 14.8 6 Norte 23 Noroeste 0 -- -- 84
2019-06-20 04:00:00 14.9 5 Noroeste 11 Noroeste 0 -- -- 83
2019-06-20 03:00:00 15 3 Noroeste 8 Noroeste 0 -- -- 82
2019-06-20 02:00:00 15.4 0 Calma 10 Noroeste 0 -- -- 79
2019-06-20 01:00:00 15.6 3 Noroeste 8 Norte 0 -- -- 77
2019-06-20 00:00:00 15.6 4 Noroeste 9 Noroeste 0 -- -- 75
2019-06-19 23:00:00 17.1 4 Noroeste 12 Noroeste 0 -- -- 68
2019-06-19 22:00:00 19.4 3 Este 12 Sudeste 0 -- -- 64
2019-06-19 21:00:00 22.1 2 Sur 15 Sudoeste 0 -- -- 45
2019-06-19 20:00:00 24.6 11 Sudoeste 24 Sudoeste 0 -- -- 30
2019-06-19 19:00:00 25.5 12 Sur 26 Sudoeste 0 -- -- 27
2019-06-19 18:00:00 25.7 13 Oeste 32 Oeste 0 -- -- 23
2019-06-19 17:00:00 25.1 17 Oeste 31 Oeste 0 -- -- 27
2019-06-19 16:00:00 25.6 8 Sudoeste -- -- -- -- -- 28
2019-06-19 15:00:00 25.9 14 Sudoeste -- -- -- -- -- 27
2019-06-19 14:00:00 25.4 11 Sur 27 Sudoeste 0 -- -- 28
2019-06-19 13:00:00 25.3 9 Sudeste 31 Sudeste 0 -- -- 26
2019-06-19 12:00:00 -- -- -- -- -- -- -- -- --
2019-06-19 11:00:00 22 5 Sudeste 12 Este 0 -- -- 41
2019-06-19 10:00:00 18.5 3 Sudeste 6 Sudeste 0 -- -- 48
2019-06-19 09:00:00 13.9 0 Calma 5 Sudeste 0 -- -- 67
2019-06-19 08:00:00 11.9 3 Noroeste 10 Noroeste 0 -- -- 67
2019-06-19 07:00:00 10.7 2 Noroeste 8 Oeste 0 -- -- 66
2019-06-19 06:00:00 10.3 0 Calma 8 Oeste 0 -- -- 64
2019-06-19 05:00:00 10.9 0 Calma 14 Noroeste 0 -- -- 58
2019-06-19 04:00:00 12.3 9 Noroeste 18 Noroeste 0 -- -- 52
2019-06-19 03:00:00 11.9 8 Noroeste 14 Oeste 0 -- -- 55
2019-06-19 02:00:00 12.7 5 Noroeste 16 Noroeste 0 -- -- 58
2019-06-19 01:00:00 12.9 7 Noroeste 11 Oeste 0 -- -- 63
2019-06-19 00:00:00 13.8 5 Noroeste 12 Noroeste 0 -- -- 65
2019-06-18 23:00:00 15.3 6 Noroeste 12 Norte 0 -- -- 63
2019-06-18 22:00:00 17.3 3 Norte 10 Noroeste 0 -- -- 57
2019-06-18 21:00:00 20.8 3 Norte 24 Sur 0 -- -- 45
2019-06-18 20:00:00 23.7 8 Sudoeste 28 Oeste 0 -- -- 39
2019-06-18 19:00:00 25.2 12 Oeste 24 Oeste 0 -- -- 36
2019-06-18 18:00:00 26.1 11 Sudoeste 30 Sur 0 -- -- 36
2019-06-18 17:00:00 26.1 13 Sudoeste 27 Sur 0 -- -- 36
2019-06-18 16:00:00 26.4 12 Sudoeste 28 Oeste 0 -- -- 35
2019-06-18 15:00:00 26 10 Sudoeste 25 Sudoeste 0 -- -- 34
2019-06-18 14:00:00 26.3 11 Sudoeste 29 Oeste 0 -- -- 36
2019-06-18 13:00:00 25.4 12 Sudoeste 27 Sudoeste 0 -- -- 34
2019-06-18 12:00:00 23.9 17 Oeste 31 Sudoeste 0 -- -- 32
2019-06-18 11:00:00 22.8 8 Este 14 Este 0 -- -- 47
2019-06-18 10:00:00 19.9 3 Sudeste 6 Sur 0 -- -- 56
2019-06-18 09:00:00 17.3 0 Calma 9 Sudeste 0 -- -- 62
2019-06-18 08:00:00 13.6 0 Calma 7 Noroeste 0 -- -- 75
2019-06-18 07:00:00 12.9 2 Sudeste 9 Noroeste 0 -- -- 76
2019-06-18 06:00:00 11.7 4 Noroeste 7 Noroeste 0 -- -- 79
2019-06-18 05:00:00 11.9 0 Calma 6 Noroeste 0 -- -- 77
2019-06-18 04:00:00 12.5 0 Calma 15 Noroeste 0 -- -- 76
2019-06-18 03:00:00 13 8 Noroeste 14 Oeste 0 -- -- 77
2019-06-18 02:00:00 13.3 4 Noroeste 14 Noroeste 0 -- -- 78
2019-06-18 01:00:00 14 9 Noroeste 15 Noroeste 0 -- -- 75
2019-06-18 00:00:00 14.2 4 Noroeste 12 Noroeste 0 -- -- 75
2019-06-17 23:00:00 15.5 5 Noroeste 10 Norte 0 -- -- 70
2019-06-17 22:00:00 17.2 5 Noroeste 11 Norte 0 -- -- 64
2019-06-17 21:00:00 20.2 5 Este 18 Este 0 -- -- 56
2019-06-17 20:00:00 22.5 8 Sudeste 24 Este 0 -- -- 51
2019-06-17 19:00:00 23.3 9 Este 17 Este 0 -- -- 49
2019-06-17 18:00:00 22.8 11 Este 28 Este 0 -- -- 50
2019-06-17 17:00:00 24.7 10 Sudeste 28 Este 0 -- -- 34
2019-06-17 16:00:00 24.5 13 Este 35 Este 0 -- -- 35
2019-06-17 15:00:00 25.1 17 Este 35 Este 0 -- -- 36
2019-06-17 14:00:00 24.4 18 Este 33 Este 0 -- -- 42
2019-06-17 13:00:00 24.1 14 Este 24 Este 0 -- -- 45
2019-06-17 12:00:00 22.9 9 Este 19 Este 0 -- -- 49
2019-06-17 11:00:00 21.4 11 Este 19 Este 0 -- -- 51
2019-06-17 10:00:00 18.9 4 Sudeste 9 Este 0 -- -- 58
2019-06-17 09:00:00 16.3 5 Sudeste 8 Sudeste 0 -- -- 68
2019-06-17 08:00:00 13 3 Noroeste 14 Oeste 0 -- -- 73
2019-06-17 07:00:00 10 0 Calma 10 Noroeste 0 -- -- 84
2019-06-17 06:00:00 10.7 0 Calma 10 Norte 0 -- -- 82
2019-06-17 05:00:00 10.6 3 Noroeste 8 Noroeste 0 -- -- 83
2019-06-17 04:00:00 11.2 0 Calma 14 Noroeste 0 -- -- 85
2019-06-17 03:00:00 12 8 Noroeste 15 Noroeste 0 -- -- 82
2019-06-17 02:00:00 12.2 6 Noroeste 13 Noroeste 0 -- -- 84
2019-06-17 01:00:00 12.9 3 Noroeste 9 Norte 0 -- -- 84
2019-06-17 00:00:00 14.1 2 Noroeste 12 Noroeste 0 -- -- 79
2019-06-16 23:00:00 15.1 4 Noroeste 9 Noroeste 0 -- -- 77
2019-06-16 22:00:00 16.8 3 Norte 12 Este 0 -- -- 71
2019-06-16 21:00:00 19.1 5 Este 18 Este 0 -- -- 63
2019-06-16 20:00:00 20.7 9 Este 17 Este 0 -- -- 57
2019-06-16 19:00:00 21.3 6 Este 23 Este 0 -- -- 45
2019-06-16 18:00:00 22.6 13 Este 24 Este 0 -- -- 43
2019-06-16 17:00:00 22 10 Este 25 Este 0 -- -- 49
2019-06-16 16:00:00 22.4 9 Este 30 Este 0 -- -- 52
2019-06-16 15:00:00 21.8 14 Este 28 Este 0 -- -- 55
2019-06-16 14:00:00 21.5 13 Este 26 Este 0 -- -- 57
2019-06-16 13:00:00 20.7 14 Este 23 Este 0 -- -- 58
2019-06-16 12:00:00 19.3 14 Este 23 Sudeste 0 -- -- 60
2019-06-16 11:00:00 17.8 9 Sudeste 18 Este 0 -- -- 62
2019-06-16 10:00:00 15.6 5 Sudeste 12 Sudeste 0 -- -- 67
2019-06-16 09:00:00 13.1 2 Sudoeste 5 Sur 0 -- -- 74
2019-06-16 08:00:00 10.3 0 Calma 10 Oeste 0 -- -- 82
2019-06-16 07:00:00 8.4 6 Noroeste 15 Noroeste 0 -- -- 85
2019-06-16 06:00:00 8.5 5 Noroeste 13 Noroeste 0 -- -- 86
2019-06-16 05:00:00 9 5 Noroeste 14 Noroeste 0 -- -- 86
2019-06-16 04:00:00 9.8 3 Noroeste 10 Noroeste 0 -- -- 86
2019-06-16 03:00:00 11.6 6 Noroeste 11 Oeste 0 -- -- 85
2019-06-16 02:00:00 12.2 0 Calma 5 Norte 0 -- -- 90
2019-06-16 01:00:00 12.7 0 Calma 4 Oeste 0 -- -- 86
2019-06-16 00:00:00 13.8 2 Noroeste 9 Este 0 -- -- 85
2019-06-15 23:00:00 14.7 0 Calma 13 Este 0 -- -- 80
2019-06-15 22:00:00 15.5 2 Nordeste 22 Este 0 -- -- 77
2019-06-15 21:00:00 16.9 9 Este 17 Este 0 -- -- 66
2019-06-15 20:00:00 18.5 7 Este 29 Sudeste 0 -- -- 51
2019-06-15 19:00:00 20.3 6 Sur 30 Sudoeste 0 -- -- 43
2019-06-15 18:00:00 21.6 10 Sudoeste 26 Sudoeste 0 -- -- 33
2019-06-15 17:00:00 21.9 9 Oeste 23 Sudoeste 0 -- -- 32
2019-06-15 16:00:00 21.5 12 Sudoeste 24 Sudoeste 0 -- -- 31
2019-06-15 15:00:00 20.8 14 Sur 31 Oeste 0 -- -- 35
2019-06-15 14:00:00 20.6 14 Sur 31 Sur 0 -- -- 44
2019-06-15 13:00:00 19.9 9 Este 24 Este 0 -- -- 58
2019-06-15 12:00:00 19.9 12 Sur 26 Este 0 -- -- 56
2019-06-15 11:00:00 18.7 12 Este 24 Este 0 -- -- 65
2019-06-15 10:00:00 17.3 9 Este 18 Este 0 -- -- 70
2019-06-15 09:00:00 14.8 2 Sudoeste 5 Sudoeste 0 -- -- 75
2019-06-15 08:00:00 11.2 0 Calma 11 Noroeste 0 -- -- 85
2019-06-15 07:00:00 10.6 5 Noroeste 15 Noroeste 0 -- -- 85
2019-06-15 06:00:00 10.3 4 Noroeste 13 Noroeste 0 -- -- 87
2019-06-15 05:00:00 10.6 4 Oeste 14 Noroeste 0 -- -- 89
2019-06-15 04:00:00 10.9 3 Oeste 13 Noroeste 0 -- -- 87
2019-06-15 03:00:00 11.2 4 Noroeste 10 Noroeste 0 -- -- 87
2019-06-15 02:00:00 11.7 4 Noroeste 9 Noroeste 0 -- -- 84
2019-06-15 01:00:00 11.6 6 Noroeste 12 Noroeste 0 -- -- 81
2019-06-15 00:00:00 12.6 6 Noroeste 14 Noroeste 0 -- -- 77
2019-06-14 23:00:00 13.4 5 Noroeste 12 Noroeste 0 -- -- 77
2019-06-14 22:00:00 15.3 3 Norte 7 Noroeste 0 -- -- 74
2019-06-14 21:00:00 17.8 2 Este 12 Sudeste 0 -- -- 66
2019-06-14 20:00:00 19.3 6 Nordeste 22 Sudoeste 0 -- -- 60
2019-06-14 19:00:00 21.7 9 Sudoeste 31 Oeste 0 -- -- 53
2019-06-14 18:00:00 21.7 5 Noroeste 29 Sudoeste 0 -- -- 55
2019-06-14 17:00:00 21 15 Sur 29 Sur 0 -- -- 57
2019-06-14 16:00:00 21.5 13 Sur 24 Sur 0 -- -- 59
2019-06-14 15:00:00 19.1 10 Nordeste 34 Este 0 -- -- 70
2019-06-14 14:00:00 20.5 17 Este 28 Este 0 -- -- 64
2019-06-14 13:00:00 19.9 12 Este 36 Oeste 0.2 -- -- 67
2019-06-14 12:00:00 18.2 8 Oeste 13 Nordeste 0 -- -- 72
2019-06-14 11:00:00 16.5 9 Sudoeste 16 Sudoeste 0.2 -- -- 75
2019-06-14 10:00:00 16.5 10 Noroeste 17 Noroeste 0 -- -- 74
2019-06-14 09:00:00 14.3 5 Noroeste 15 Norte 0.2 -- -- 84
2019-06-14 08:00:00 12.3 4 Norte 14 Sudoeste 0.4 -- -- 89
2019-06-14 07:00:00 11.7 3 Noroeste 11 Nordeste 0 -- -- 85
2019-06-14 06:00:00 11.6 5 Oeste 10 Sudeste 0 -- -- 80
2019-06-14 05:00:00 11.8 5 Norte 18 Norte 0 -- -- 76
2019-06-14 04:00:00 11.3 7 Noroeste 19 Noroeste 0 -- -- 73
2019-06-14 03:00:00 10.7 7 Noroeste 16 Oeste 0 -- -- 71
2019-06-14 02:00:00 9.6 6 Oeste 16 Noroeste 0 -- -- 78
2019-06-14 01:00:00 10.4 4 Norte 14 Oeste 0 -- -- 76
2019-06-14 00:00:00 11 5 Noroeste 13 Noroeste 0 -- -- 80
2019-06-13 23:00:00 12.3 3 Noroeste 9 Noroeste 0 -- -- 76
2019-06-13 22:00:00 14.1 2 Nordeste 8 Nordeste 0 -- -- 70
2019-06-13 21:00:00 16.1 6 Sudeste 18 Este 0 -- -- 61
2019-06-13 20:00:00 18.2 5 Este 18 Este 0 -- -- 54
2019-06-13 19:00:00 19.6 12 Este 26 Este 0 -- -- 46
2019-06-13 18:00:00 19.9 6 Sudeste 23 Este 0 -- -- 41
2019-06-13 17:00:00 21.1 12 Este 29 Este 0 -- -- 42
2019-06-13 16:00:00 20.6 13 Este 29 Este 0 -- -- 40
2019-06-13 15:00:00 20.3 12 Este 30 Este 0 -- -- 41
2019-06-13 14:00:00 19.7 16 Este 32 Este 0 -- -- 41
2019-06-13 13:00:00 19.3 10 Este 22 Sudeste 0 -- -- 40
2019-06-13 12:00:00 18.3 7 Este 19 Este 0 -- -- 37
2019-06-13 11:00:00 17.1 9 Sudeste 18 Este 0 -- -- 39
2019-06-13 10:00:00 14.1 5 Sudeste 10 Sudeste 0 -- -- 53
2019-06-13 09:00:00 11.1 0 Calma 5 Noroeste 0 -- -- 67
2019-06-13 08:00:00 6.7 0 Calma 13 Noroeste 0 -- -- 78
2019-06-13 07:00:00 3.6 7 Noroeste 12 Noroeste 0 -- -- 89
2019-06-13 06:00:00 3.7 3 Noroeste 7 Oeste 0 -- -- 88
2019-06-13 05:00:00 3.9 2 Noroeste 11 Noroeste 0 -- -- 87
2019-06-13 04:00:00 4.3 2 Oeste 9 Noroeste 0 -- -- 87
2019-06-13 03:00:00 4.9 7 Noroeste 14 Noroeste 0 -- -- 84
2019-06-13 02:00:00 5.2 4 Noroeste 9 Noroeste 0 -- -- 84
2019-06-13 01:00:00 6.2 3 Noroeste 13 Noroeste 0 -- -- 81
2019-06-13 00:00:00 6.9 6 Noroeste 14 Noroeste 0 -- -- 80
2019-06-12 23:00:00 7.7 5 Noroeste 14 Noroeste 0 -- -- 77
2019-06-12 22:00:00 9.5 7 Noroeste 15 Oeste 0 -- -- 69
2019-06-12 21:00:00 12.6 4 Noroeste 15 Oeste 0 -- -- 57
2019-06-12 20:00:00 14.6 10 Noroeste 22 Sudoeste 0 -- -- 48
2019-06-12 19:00:00 16 11 Oeste 27 Sudoeste 0 -- -- 45
2019-06-12 18:00:00 16.1 12 Sudoeste 29 Sudoeste 0 -- -- 45
2019-06-12 17:00:00 15.6 6 Sudoeste 20 Sudoeste 0 -- -- 46
2019-06-12 16:00:00 15.7 8 Sudoeste 28 Sur 0 -- -- 50
2019-06-12 15:00:00 15.1 9 Sudoeste 32 Sudoeste 0 -- -- 50
2019-06-12 14:00:00 14.5 11 Sur 25 Sur 0 -- -- 55
2019-06-12 13:00:00 12.9 10 Este 26 Este 0 -- -- 71
2019-06-12 12:00:00 10.8 13 Este 27 Este 0 -- -- 76
2019-06-12 11:00:00 9.6 12 Este 25 Este 0 -- -- 79
2019-06-12 10:00:00 9 8 Este 18 Este 0 -- -- 80
2019-06-12 09:00:00 6.1 3 Este 9 Este 0 -- -- 86
2019-06-12 08:00:00 3.2 2 Sudoeste 5 Sudoeste 0 -- -- 95
2019-06-12 07:00:00 0.9 2 Sudeste 9 Noroeste 0 -- -- 96
2019-06-12 06:00:00 0.8 2 Noroeste 10 Noroeste 0 -- -- 95
2019-06-12 05:00:00 1 0 Calma 11 Oeste 0 -- -- 95
2019-06-12 04:00:00 1.1 5 Noroeste 10 Noroeste 0 -- -- 96
2019-06-12 03:00:00 1.4 5 Noroeste 10 Noroeste 0 -- -- 96
2019-06-12 02:00:00 1.9 3 Noroeste 8 Noroeste 0 -- -- 94
2019-06-12 01:00:00 2.7 3 Noroeste 9 Noroeste 0 -- -- 95
2019-06-12 00:00:00 3.2 4 Noroeste 6 Oeste 0 -- -- 95
2019-06-11 23:00:00 4.5 3 Nordeste 7 Noroeste 0 -- -- 94
2019-06-11 22:00:00 5.9 3 Nordeste 8 Este 0.2 -- -- 94
2019-06-11 21:00:00 6.5 5 Nordeste 21 Oeste 0.8 -- -- 87
2019-06-11 20:00:00 8 4 Noroeste 9 Oeste 0.6 -- -- 90
2019-06-11 19:00:00 8.9 0 Calma 7 Este 0.4 -- -- 91
2019-06-11 18:00:00 9.2 5 Este 9 Este 0 -- -- 88
2019-06-11 17:00:00 8.7 3 Este 13 Este 0.4 -- -- 89
2019-06-11 16:00:00 8.6 7 Este 13 Este 1 -- -- 92
2019-06-11 15:00:00 8.6 4 Este 7 Nordeste 1.6 -- -- 91
2019-06-11 14:00:00 8.6 6 Este 10 Este 0.8 -- -- 92
2019-06-11 13:00:00 8.2 5 Este 10 Este 1.6 -- -- 94
2019-06-11 12:00:00 7.5 0 Calma 6 Sudeste 2 -- -- 94
2019-06-11 11:00:00 7.1 3 Este 9 Este 1 -- -- 94
2019-06-11 10:00:00 7 4 Este 8 Este 2.8 -- -- 94
2019-06-11 09:00:00 7 4 Este 27 Sudoeste 2 -- -- 94
2019-06-11 08:00:00 6.8 4 Noroeste 8 Este 2.8 -- -- 93
2019-06-11 07:00:00 7.1 3 Este 8 Noroeste 2.2 -- -- 92
2019-06-11 06:00:00 7.3 3 Noroeste 14 Noroeste 1.4 -- -- 89
2019-06-11 05:00:00 9 8 Noroeste 20 Sudoeste 0.2 -- -- 75
2019-06-11 04:00:00 9.3 2 Nordeste 5 Este 0 -- -- 88
2019-06-11 03:00:00 9.7 0 Calma 4 Noroeste 0 -- -- 87
2019-06-11 02:00:00 10 2 Oeste 7 Noroeste 0 -- -- 84
2019-06-11 01:00:00 10.7 3 Noroeste 6 Norte 0 -- -- 80
2019-06-11 00:00:00 12.2 0 Calma 9 Este 0 -- -- 78
2019-06-10 23:00:00 13.5 3 Este 15 Sudeste 0 -- -- 71
2019-06-10 22:00:00 14.7 6 Nordeste 16 Este 0 -- -- 64
2019-06-10 21:00:00 15.9 6 Sudeste 19 Sur 0 -- -- 63
2019-06-10 20:00:00 16.9 12 Sur 31 Sur 0 -- -- 57
2019-06-10 19:00:00 17.4 4 Norte 23 Sudeste 0 -- -- 59
2019-06-10 18:00:00 18.6 13 Este 33 Sudeste 0 -- -- 55
2019-06-10 17:00:00 19.4 12 Sur 35 Sudeste 0 -- -- 50
2019-06-10 16:00:00 20.2 9 Sudeste 24 Oeste 0 -- -- 47
2019-06-10 15:00:00 20.7 6 Sudoeste 28 Oeste 0 -- -- 47
2019-06-10 14:00:00 19.5 5 Sur 25 Este 0 -- -- 52
2019-06-10 13:00:00 18.5 10 Sur 29 Este 0 -- -- 56
2019-06-10 12:00:00 19.1 4 Este 15 Este 0 -- -- 56
2019-06-10 11:00:00 18 6 Sudeste 14 Este 0 -- -- 63
2019-06-10 10:00:00 16 4 Sudeste 8 Oeste 0 -- -- 70
2019-06-10 09:00:00 13.7 4 Oeste 11 Sudeste 0 -- -- 79
2019-06-10 08:00:00 13.4 2 Sur 7 Sudeste 0 -- -- 74
2019-06-10 07:00:00 11.5 4 Norte 7 Noroeste 0 -- -- 79
2019-06-10 06:00:00 11.4 4 Norte 8 Sudeste 0 -- -- 78
2019-06-10 05:00:00 11.9 3 Noroeste 8 Oeste 0 -- -- 76
2019-06-10 04:00:00 11.7 0 Calma 8 Norte 0 -- -- 76
2019-06-10 03:00:00 11.8 4 Oeste 13 Noroeste 0 -- -- 74
2019-06-10 02:00:00 12.5 7 Noroeste 14 Noroeste 0 -- -- 70
2019-06-10 01:00:00 12.5 5 Noroeste 13 Noroeste 0 -- -- 71
2019-06-10 00:00:00 13.1 4 Oeste 15 Noroeste 0 -- -- 70
2019-06-09 23:00:00 14.2 0 Calma 8 Noroeste 0 -- -- 67
2019-06-09 22:00:00 15.7 3 Noroeste 8 Este 0 -- -- 62
2019-06-09 21:00:00 18.5 2 Sudoeste 10 Este 0 -- -- 52
2019-06-09 20:00:00 19.9 6 Sudeste 26 Sudoeste 0 -- -- 48
2019-06-09 19:00:00 23.1 13 Sudoeste 25 Sudoeste 0 -- -- 40
2019-06-09 18:00:00 24.1 10 Este 19 Este 0 -- -- 41
2019-06-09 17:00:00 23.2 5 Sudeste 15 Sudeste 0 -- -- 40
2019-06-09 16:00:00 22.4 5 Sudeste 12 Este 0 -- -- 43
2019-06-09 15:00:00 21 10 Este 20 Este 0 -- -- 42
2019-06-09 14:00:00 21 12 Este 20 Sudeste 0 -- -- 41
2019-06-09 13:00:00 20.9 13 Este 21 Este 0 -- -- 37
2019-06-09 12:00:00 20.5 14 Este 22 Este 0 -- -- 38
2019-06-09 11:00:00 19.7 6 Sur 21 Este 0 -- -- 41
2019-06-09 10:00:00 17.8 7 Este 16 Este 0 -- -- 47
2019-06-09 09:00:00 15.9 2 Nordeste 9 Sur 0 -- -- 64
2019-06-09 08:00:00 13.8 3 Oeste 9 Norte 0 -- -- 64
2019-06-09 07:00:00 12.6 3 Sudeste 11 Noroeste 0 -- -- 65
2019-06-09 06:00:00 12.3 2 Este 10 Noroeste 0 -- -- 67
2019-06-09 05:00:00 12.9 4 Noroeste 11 Noroeste 0 -- -- 59
2019-06-09 04:00:00 12.4 3 Noroeste 11 Noroeste 0 -- -- 67
2019-06-09 03:00:00 12.3 0 Calma 5 Noroeste 0 -- -- 69
2019-06-09 02:00:00 12.3 3 Noroeste 9 Noroeste 0 -- -- 70
2019-06-09 01:00:00 12.2 5 Noroeste 12 Oeste 0 -- -- 68
2019-06-09 00:00:00 12.4 6 Noroeste 15 Noroeste 0 -- -- 66
2019-06-08 23:00:00 12.4 4 Noroeste 9 Noroeste 0 -- -- 67
2019-06-08 22:00:00 14.1 0 Calma 5 Nordeste 0 -- -- 59
2019-06-08 21:00:00 16.3 4 Este 13 Oeste 0 -- -- 51
2019-06-08 20:00:00 17.7 6 Sudoeste 14 Sudoeste 0 -- -- 50
2019-06-08 19:00:00 19.2 5 Este 30 Este 0 -- -- 47
2019-06-08 18:00:00 20.7 18 Este 31 Este 0 -- -- 44
2019-06-08 17:00:00 21.3 15 Este 35 Este 0 -- -- 43
2019-06-08 16:00:00 21.4 14 Este 36 Este 0 -- -- 44
2019-06-08 15:00:00 21.2 15 Este 35 Sudeste 0 -- -- 43
2019-06-08 14:00:00 21.7 9 Sur 31 Sudoeste 0 -- -- 39
2019-06-08 13:00:00 20.1 9 Noroeste 32 Noroeste 0 -- -- 32
2019-06-08 12:00:00 19.1 12 Sudoeste 34 Oeste 0 -- -- 38
2019-06-08 11:00:00 17.2 8 Oeste 20 Oeste 0 -- -- 43
2019-06-08 10:00:00 14.5 3 Sur 9 Sur 0 -- -- 49
2019-06-08 09:00:00 11.7 2 Sudoeste 7 Noroeste 0 -- -- 59
2019-06-08 08:00:00 7.9 3 Noroeste 14 Noroeste 0 -- -- 65
2019-06-08 07:00:00 4.9 2 Norte 12 Noroeste 0 -- -- 72
2019-06-08 06:00:00 5.1 5 Noroeste 11 Noroeste 0 -- -- 68
2019-06-08 05:00:00 5.1 0 Calma 10 Noroeste 0 -- -- 68
2019-06-08 04:00:00 5.7 6 Noroeste 12 Noroeste 0 -- -- 65
2019-06-08 03:00:00 6.1 5 Noroeste 10 Noroeste 0 -- -- 63
2019-06-08 02:00:00 6.7 5 Noroeste 8 Noroeste 0 -- -- 58
2019-06-08 01:00:00 7.5 3 Noroeste 14 Noroeste 0 -- -- 56
2019-06-08 00:00:00 9 9 Noroeste 19 Noroeste 0 -- -- 49
2019-06-07 23:00:00 10 9 Noroeste 15 Oeste 0 -- -- 49
2019-06-07 22:00:00 12.1 6 Noroeste 11 Norte 0 -- -- 44
2019-06-07 21:00:00 15.9 4 Sudoeste 13 Este 0 -- -- 35
2019-06-07 20:00:00 18.5 9 Sudoeste 21 Sudoeste 0 -- -- 28
2019-06-07 19:00:00 19.4 12 Sudoeste 36 Oeste 0 -- -- 32
2019-06-07 18:00:00 19.5 11 Sur 28 Oeste 0 -- -- 35
2019-06-07 17:00:00 20.1 12 Sur 32 Sur 0 -- -- 38
2019-06-07 16:00:00 20.6 13 Sudoeste 31 Oeste 0 -- -- 37
2019-06-07 15:00:00 19.4 15 Oeste 35 Oeste 0 -- -- 42
2019-06-07 14:00:00 19.8 10 Oeste 38 Oeste 0 -- -- 45
2019-06-07 13:00:00 18.6 18 Sudoeste 39 Noroeste 0 -- -- 49
2019-06-07 12:00:00 17.5 14 Oeste 41 Oeste 0 -- -- 52
2019-06-07 11:00:00 16.9 8 Oeste 23 Oeste 0 -- -- 53
2019-06-07 10:00:00 15.5 8 Oeste 21 Sudoeste 0 -- -- 54
2019-06-07 09:00:00 13.2 5 Sudeste 9 Este 0 -- -- 66
2019-06-07 08:00:00 9.8 3 Noroeste 7 Noroeste 0 -- -- 75
2019-06-07 07:00:00 7.7 0 Calma 16 Norte 0 -- -- 83
2019-06-07 06:00:00 7.2 4 Noroeste 11 Nordeste 0 -- -- 84
2019-06-07 05:00:00 7.4 4 Noroeste 9 Noroeste 0 -- -- 81
2019-06-07 04:00:00 7.3 3 Este 13 Sudoeste 0 -- -- 78
2019-06-07 03:00:00 7.1 3 Nordeste 12 Noroeste 0 -- -- 77
2019-06-07 02:00:00 7.7 3 Norte 12 Oeste 0 -- -- 76
2019-06-07 01:00:00 8.5 4 Este 14 Sudoeste 0 -- -- 73
2019-06-07 00:00:00 8.7 4 Norte 13 Nordeste 0 -- -- 72
2019-06-06 23:00:00 9.2 2 Oeste 10 Este 0 -- -- 76
2019-06-06 22:00:00 11 4 Noroeste 14 Noroeste 0 -- -- 67
2019-06-06 21:00:00 13.1 4 Noroeste 24 Oeste 0 -- -- 61
2019-06-06 20:00:00 13.6 8 Oeste 41 Sudoeste 0 -- -- 58
2019-06-06 19:00:00 14.2 6 Norte 16 Noroeste 0 -- -- 61
2019-06-06 18:00:00 14 9 Noroeste 31 Sudoeste 0 -- -- 62
2019-06-06 17:00:00 14.6 6 Sudoeste 27 Sudoeste 0 -- -- 62
2019-06-06 16:00:00 15.3 11 Sudoeste 28 Sur 0 -- -- 56
2019-06-06 15:00:00 16.6 13 Noroeste 28 Noroeste 0 -- -- 44
2019-06-06 14:00:00 16.6 9 Oeste 26 Oeste 0 -- -- 46
2019-06-06 13:00:00 16.2 9 Sudeste 23 Oeste 0 -- -- 47
2019-06-06 12:00:00 15.7 9 Oeste 32 Sudoeste 0 -- -- 48
2019-06-06 11:00:00 14.8 11 Este 24 Este 0 -- -- 59
2019-06-06 10:00:00 12.4 12 Este 22 Este 0 -- -- 66
2019-06-06 09:00:00 9.9 8 Sudeste 14 Este 0 -- -- 75
2019-06-06 08:00:00 6.8 0 Calma 6 Este 0 -- -- 81
2019-06-06 07:00:00 4.9 4 Noroeste 10 Noroeste 0 -- -- 86
2019-06-06 06:00:00 4.7 6 Noroeste 11 Noroeste 0 -- -- 87
2019-06-06 05:00:00 5.3 2 Noroeste 8 Noroeste 0 -- -- 85
2019-06-06 04:00:00 6.3 6 Noroeste 16 Noroeste 0 -- -- 80
2019-06-06 03:00:00 7.3 6 Noroeste 17 Noroeste 0 -- -- 76
2019-06-06 02:00:00 8.5 6 Noroeste 11 Noroeste 0 -- -- 70
2019-06-06 01:00:00 9.3 4 Noroeste 17 Noroeste 0 -- -- 68
2019-06-06 00:00:00 10.4 9 Noroeste 18 Noroeste 0 -- -- 64
2019-06-05 23:00:00 11.1 8 Noroeste 18 Noroeste 0 -- -- 64
2019-06-05 22:00:00 12.8 7 Norte 19 Sudoeste 0 -- -- 61
2019-06-05 21:00:00 14.3 6 Noroeste 21 Este 0 -- -- 57
2019-06-05 20:00:00 15.6 6 Sudoeste 24 Oeste 0 -- -- 49
2019-06-05 19:00:00 16.6 17 Oeste 31 Oeste 0 -- -- 44
2019-06-05 18:00:00 15.9 14 Sudoeste 28 Sudoeste 0 -- -- 50
2019-06-05 17:00:00 14.1 15 Oeste 41 Oeste 0 -- -- 61
2019-06-05 16:00:00 17 11 Sudoeste 27 Este 0 -- -- 62
2019-06-05 15:00:00 17.3 6 Oeste 18 Sudoeste 0 -- -- 53
2019-06-05 14:00:00 17.3 5 Sur 28 Este 0 -- -- 47
2019-06-05 13:00:00 17.9 15 Este 34 Este 0 -- -- 43
2019-06-05 12:00:00 19.6 21 Este 37 Este 0 -- -- 39
2019-06-05 11:00:00 19.5 11 Este 27 Este 0 -- -- 37
2019-06-05 10:00:00 18.4 15 Este 27 Este 0 -- -- 38
2019-06-05 09:00:00 15.4 5 Sudeste 9 Este 0 -- -- 42
2019-06-05 08:00:00 11.7 0 Calma 13 Noroeste 0 -- -- 48
2019-06-05 07:00:00 9.5 3 Noroeste 14 Noroeste 0 -- -- 51
2019-06-05 06:00:00 9.7 5 Noroeste 15 Noroeste 0 -- -- 47
2019-06-05 05:00:00 10.5 9 Noroeste 15 Noroeste 0 -- -- 45
2019-06-05 04:00:00 11 3 Noroeste 13 Oeste 0 -- -- 46
2019-06-05 03:00:00 11.4 9 Noroeste 14 Noroeste 0 -- -- 47
2019-06-05 02:00:00 11 6 Oeste 15 Noroeste 0 -- -- 60
2019-06-05 01:00:00 11.4 6 Noroeste 14 Noroeste 0 -- -- 63
2019-06-05 00:00:00 12.4 5 Noroeste 13 Norte 0 -- -- 61
2019-06-04 23:00:00 13.8 7 Noroeste 13 Noroeste 0 -- -- 58
2019-06-04 22:00:00 16.1 4 Norte 9 Norte 0 -- -- 51
2019-06-04 21:00:00 19.4 3 Norte 19 Sudoeste 0 -- -- 42
2019-06-04 20:00:00 22.5 5 Sur 21 Sudeste 0 -- -- 39
2019-06-04 19:00:00 23.4 10 Sudeste 25 Este 0 -- -- 37
2019-06-04 18:00:00 24.4 11 Este 29 Este 0 -- -- 40
2019-06-04 17:00:00 24.6 12 Sudeste 28 Sudeste 0 -- -- 39
2019-06-04 16:00:00 24.8 11 Sudoeste 26 Este 0 -- -- 38
2019-06-04 15:00:00 24.6 16 Este 26 Este 0 -- -- 36
2019-06-04 14:00:00 24.5 12 Este 26 Sudeste 0 -- -- 36
2019-06-04 13:00:00 23.8 13 Este 25 Este 0 -- -- 36
2019-06-04 12:00:00 22.5 10 Este 20 Este 0 -- -- 38
2019-06-04 11:00:00 21.1 8 Este 15 Este 0 -- -- 43
2019-06-04 10:00:00 19.6 6 Este 10 Sudeste 0 -- -- 48
2019-06-04 09:00:00 16.1 0 Calma 6 Sudeste 0 -- -- 65
2019-06-04 08:00:00 13.8 2 Noroeste 6 Oeste 0 -- -- 66
2019-06-04 07:00:00 11 0 Calma 5 Noroeste 0 -- -- 72
2019-06-04 06:00:00 11.2 0 Calma 7 Oeste 0 -- -- 73
2019-06-04 05:00:00 11.8 4 Noroeste 12 Noroeste 0 -- -- 72
2019-06-04 04:00:00 11.8 5 Noroeste 10 Noroeste 0 -- -- 73
2019-06-04 03:00:00 11.6 3 Noroeste 8 Noroeste 0 -- -- 73
2019-06-04 02:00:00 12.3 0 Calma 4 Noroeste 0 -- -- 72
2019-06-04 01:00:00 13.1 0 Calma 9 Noroeste 0 -- -- 70
2019-06-04 00:00:00 13.4 4 Noroeste 8 Oeste 0 -- -- 70
2019-06-03 23:00:00 14.7 0 Calma 13 Noroeste 0 -- -- 66
2019-06-03 22:00:00 16.4 5 Noroeste 10 Noroeste 0 -- -- 61
2019-06-03 21:00:00 19.7 3 Sudeste 9 Este 0 -- -- 48
2019-06-03 20:00:00 21.9 3 Nordeste 17 Este 0 -- -- 44
2019-06-03 19:00:00 23.3 5 Sudeste 18 Sudeste 0 -- -- 41
2019-06-03 18:00:00 23.2 9 Sur 20 Sudoeste 0 -- -- 41
2019-06-03 17:00:00 23.9 9 Sur 23 Este 0 -- -- 39
2019-06-03 16:00:00 24.5 12 Este 35 Oeste 0 -- -- 37
2019-06-03 15:00:00 25 9 Sudeste 25 Sudeste 0 -- -- 38
2019-06-03 14:00:00 24 13 Este 24 Este 0 -- -- 41
2019-06-03 13:00:00 22.6 11 Este 23 Este 0 -- -- 47
2019-06-03 12:00:00 22.6 16 Este 30 Oeste 0 -- -- 46
2019-06-03 11:00:00 25.5 5 Noroeste 31 Sudoeste 0 -- -- 34
2019-06-03 10:00:00 22.5 19 Sudoeste 39 Sudoeste 0 -- -- 41
2019-06-03 09:00:00 18 0 Calma 4 Sudeste 0 -- -- 69
2019-06-03 08:00:00 14.2 3 Este 8 Oeste 0 -- -- 72
2019-06-03 07:00:00 11.6 3 Noroeste 8 Noroeste 0 -- -- 77
2019-06-03 06:00:00 11.9 0 Calma 11 Noroeste 0 -- -- 75
2019-06-03 05:00:00 12.2 4 Noroeste 11 Noroeste 0 -- -- 74
2019-06-03 04:00:00 12.5 6 Noroeste 13 Noroeste 0 -- -- 75
2019-06-03 03:00:00 12.6 2 Este 10 Noroeste 0 -- -- 75
2019-06-03 02:00:00 13 2 Noroeste 6 Noroeste 0 -- -- 76
2019-06-03 01:00:00 13.3 2 Nordeste 9 Noroeste 0 -- -- 77
2019-06-03 00:00:00 14.2 5 Noroeste 13 Noroeste 0 -- -- 77
2019-06-02 23:00:00 15.2 8 Noroeste 18 Noroeste 0 -- -- 76
2019-06-02 22:00:00 16.1 7 Noroeste 16 Noroeste 0 -- -- 74
2019-06-02 21:00:00 17.2 10 Noroeste 17 Noroeste 0 -- -- 76
2019-06-02 20:00:00 18.4 2 Sudoeste 15 Noroeste 0 -- -- 73
2019-06-02 19:00:00 17.8 10 Noroeste 18 Noroeste 0 -- -- 77
2019-06-02 18:00:00 21 4 Oeste 12 Este 0 -- -- 59
2019-06-02 17:00:00 22.4 11 Este 27 Este 0 -- -- 49
2019-06-02 16:00:00 23.3 15 Este 31 Este 0 -- -- 48
2019-06-02 15:00:00 24.6 14 Este 35 Este 0 -- -- 47
2019-06-02 14:00:00 24.9 16 Este 31 Este 0 -- -- 45
2019-06-02 13:00:00 24.3 20 Este 31 Este 0 -- -- 44
2019-06-02 12:00:00 23.6 16 Este 25 Este 0 -- -- 48
2019-06-02 11:00:00 22.4 9 Sudeste 20 Este 0 -- -- 50
2019-06-02 10:00:00 20 3 Sudeste 8 Sudeste 0 -- -- 53
2019-06-02 09:00:00 17.1 0 Calma 3 Sur 0 -- -- 61
2019-06-02 08:00:00 13.1 0 Calma 5 Oeste 0 -- -- 65
2019-06-02 07:00:00 11.1 4 Noroeste 9 Noroeste 0 -- -- 66
2019-06-02 06:00:00 12.3 6 Noroeste 12 Noroeste 0 -- -- 64
2019-06-02 05:00:00 10.9 4 Noroeste 9 Noroeste 0 -- -- 76
2019-06-02 04:00:00 10.9 0 Calma 5 Sur 0 -- -- 83
2019-06-02 03:00:00 11.5 0 Calma 7 Noroeste 0 -- -- 84
2019-06-02 02:00:00 12 0 Calma 6 Noroeste 0 -- -- 81
2019-06-02 01:00:00 13.1 6 Noroeste 13 Noroeste 0 -- -- 77
2019-06-02 00:00:00 13.9 6 Noroeste 14 Noroeste 0 -- -- 75
2019-06-01 23:00:00 14.8 7 Noroeste 12 Oeste 0 -- -- 73
2019-06-01 22:00:00 16.9 0 Calma 7 Oeste 0 -- -- 66
2019-06-01 21:00:00 18.9 4 Sudeste 15 Este 0 -- -- 60
2019-06-01 20:00:00 20.7 7 Este 16 Este 0 -- -- 55
2019-06-01 19:00:00 22.2 5 Sudeste 21 Este 0 -- -- 47
2019-06-01 18:00:00 23.4 5 Sudeste 22 Este 0 -- -- 46
2019-06-01 17:00:00 23 11 Este 22 Este 0 -- -- 46
2019-06-01 16:00:00 23.5 6 Sudeste 18 Este 0 -- -- 44
2019-06-01 15:00:00 22.2 12 Sudeste 27 Este 0 -- -- 46
2019-06-01 14:00:00 22.9 12 Este 28 Sudeste 0 -- -- 46
2019-06-01 13:00:00 23.3 14 Este 26 Este 0 -- -- 45
2019-06-01 12:00:00 22.1 11 Este 23 Este 0 -- -- 44
2019-06-01 11:00:00 21.1 9 Este 19 Este 0 -- -- 48
2019-06-01 10:00:00 18.3 4 Sudeste 8 Sudeste 0 -- -- 57
2019-06-01 09:00:00 15.6 0 Calma 0 Calma 0 -- -- 70
2019-06-01 08:00:00 12.4 0 Calma 10 Noroeste 0 -- -- 75
2019-06-01 07:00:00 10.1 4 Noroeste 12 Noroeste 0 -- -- 81
2019-06-01 06:00:00 9.9 5 Noroeste 10 Noroeste 0 -- -- 86
2019-06-01 05:00:00 10.2 3 Noroeste 11 Noroeste 0 -- -- 87
2019-06-01 04:00:00 10.6 6 Noroeste 13 Noroeste 0 -- -- 85
2019-06-01 03:00:00 10.6 7 Noroeste 12 Noroeste 0 -- -- 86
2019-06-01 02:00:00 11.1 5 Noroeste 12 Noroeste 0 -- -- 85
2019-06-01 01:00:00 11.8 6 Noroeste 17 Noroeste 0 -- -- 82
2019-06-01 00:00:00 12.7 6 Noroeste 12 Noroeste 0 -- -- 79
2019-05-31 23:00:00 14.7 5 Norte 8 Norte 0 -- -- 75
2019-05-31 22:00:00 16.5 0 Calma 14 Este 0 -- -- 68
2019-05-31 21:00:00 18.3 7 Este 13 Sudeste 0 -- -- 63
2019-05-31 20:00:00 20.2 5 Este 19 Este 0 -- -- 57
2019-05-31 19:00:00 20.6 11 Este 18 Este 0 -- -- 55
2019-05-31 18:00:00 20.9 6 Este 23 Este 0 -- -- 52
2019-05-31 17:00:00 21.4 10 Este 23 Este 0 -- -- 50
2019-05-31 16:00:00 21.2 8 Sudeste 23 Sudeste 0 -- -- 48
2019-05-31 15:00:00 22 15 Este 27 Este 0 -- -- 46
2019-05-31 14:00:00 21.4 14 Este 28 Este 0 -- -- 49
2019-05-31 13:00:00 20.7 14 Este 25 Sudeste 0 -- -- 50
2019-05-31 12:00:00 19.5 13 Este 24 Este 0 -- -- 54
2019-05-31 11:00:00 18 11 Este 20 Este 0 -- -- 58
2019-05-31 10:00:00 15.8 4 Este 10 Este 0 -- -- 64
2019-05-31 09:00:00 12.9 4 Sudeste 6 Sudeste 0 -- -- 73
2019-05-31 08:00:00 9.2 2 Noroeste 7 Noroeste 0 -- -- 78
2019-05-31 07:00:00 6.7 0 Calma 10 Noroeste 0 -- -- 88
2019-05-31 06:00:00 7.4 4 Noroeste 14 Noroeste 0 -- -- 85
2019-05-31 05:00:00 8.3 11 Noroeste 17 Noroeste 0 -- -- 83
2019-05-31 04:00:00 8.8 7 Noroeste 14 Noroeste 0 -- -- 83
2019-05-31 03:00:00 8.6 4 Noroeste 12 Norte 0 -- -- 83
2019-05-31 02:00:00 8.5 4 Noroeste 9 Noroeste 0 -- -- 80
2019-05-31 01:00:00 9.1 2 Noroeste 9 Norte 0 -- -- 77
2019-05-31 00:00:00 10.2 3 Norte 9 Noroeste 0 -- -- 72
2019-05-30 23:00:00 11.6 5 Noroeste 10 Noroeste 0 -- -- 69
2019-05-30 22:00:00 13.7 4 Noroeste 7 Noroeste 0 -- -- 69
2019-05-30 21:00:00 16 3 Sudeste 27 Este 0 -- -- 64
2019-05-30 20:00:00 18.9 10 Sudeste 27 Sudeste 0 -- -- 54
2019-05-30 19:00:00 20.5 5 Este 27 Este 0 -- -- 45
2019-05-30 18:00:00 20.9 8 Este 25 Este 0 -- -- 45
2019-05-30 17:00:00 21.3 8 Sudeste 25 Este 0 -- -- 46
2019-05-30 16:00:00 20.5 15 Este 29 Este 0 -- -- 47
2019-05-30 15:00:00 20 18 Este 31 Este 0 -- -- 50
2019-05-30 14:00:00 19.7 14 Este 30 Este 0 -- -- 51
2019-05-30 13:00:00 18.7 17 Este 31 Este 0 -- -- 48
2019-05-30 12:00:00 17.9 14 Este 27 Este 0 -- -- 50
2019-05-30 11:00:00 16.2 9 Este 21 Este 0 -- -- 50
2019-05-30 10:00:00 14.4 6 Este 12 Este 0 -- -- 59
2019-05-30 09:00:00 11 3 Sudeste 7 Este 0 -- -- 66
2019-05-30 08:00:00 7.2 0 Calma 5 Noroeste 0 -- -- 76
2019-05-30 07:00:00 5.2 2 Este 5 Sur 0 -- -- 81
2019-05-30 06:00:00 5.6 2 Sudeste 11 Sudeste 0 -- -- 79
2019-05-30 05:00:00 5.7 0 Calma 6 Norte 0 -- -- 77
2019-05-30 04:00:00 5.9 3 Nordeste 10 Este 0 -- -- 74
2019-05-30 03:00:00 6.5 4 Este 11 Este 0 -- -- 70
2019-05-30 02:00:00 7.3 5 Nordeste 9 Este 0 -- -- 66
2019-05-30 01:00:00 9.1 5 Sudeste 30 Noroeste 0 -- -- 59
2019-05-30 00:00:00 9.9 14 Noroeste 36 Noroeste 0 -- -- 54
2019-05-29 23:00:00 8.8 16 Noroeste 32 Noroeste 0 -- -- 57
2019-05-29 22:00:00 9.9 17 Noroeste 26 Noroeste 0 -- -- 53
2019-05-29 21:00:00 11.7 15 Noroeste 33 Noroeste 0 -- -- 44
2019-05-29 20:00:00 13.8 15 Noroeste 43 Oeste 0 -- -- 37
2019-05-29 19:00:00 15.2 23 Oeste 45 Noroeste 0 -- -- 34
2019-05-29 18:00:00 16.7 15 Noroeste 41 Oeste 0 -- -- 34
2019-05-29 17:00:00 17 24 Oeste 43 Oeste 0 -- -- 32
2019-05-29 16:00:00 17.4 22 Oeste 38 Sudoeste 0 -- -- 30
2019-05-29 15:00:00 17.6 8 Sudeste 24 Este 0 -- -- 39
2019-05-29 14:00:00 16.3 14 Este 26 Este 0 -- -- 53
2019-05-29 13:00:00 14.9 10 Este 21 Este 0 -- -- 50
2019-05-29 12:00:00 14.2 10 Este 18 Este 0 -- -- 49
2019-05-29 11:00:00 13.8 13 Este 26 Este 0 -- -- 46
2019-05-29 10:00:00 12.6 6 Sudoeste 24 Oeste 0 -- -- 36
2019-05-29 09:00:00 10.7 2 Nordeste 8 Este 0 -- -- 48
2019-05-29 08:00:00 7.7 6 Noroeste 21 Noroeste 0 -- -- 58
2019-05-29 07:00:00 7.9 6 Nordeste 35 Oeste 0 -- -- 49
2019-05-29 06:00:00 7.9 13 Noroeste 34 Oeste 0 -- -- 48
2019-05-29 05:00:00 5.7 6 Sudoeste 19 Sudeste 0 -- -- 75
2019-05-29 04:00:00 8.1 8 Este 37 Oeste 0 -- -- 53
2019-05-29 03:00:00 8.1 12 Oeste 28 Oeste 0 -- -- 55
2019-05-29 02:00:00 8.1 13 Oeste 27 Oeste 0 -- -- 58
2019-05-29 01:00:00 8.5 13 Noroeste 24 Noroeste 0 -- -- 57
2019-05-29 00:00:00 9.2 4 Este 25 Sudoeste 0 -- -- 52
2019-05-28 23:00:00 9.2 8 Este 26 Oeste 0 -- -- 64
2019-05-28 22:00:00 9.9 7 Noroeste 23 Oeste 0 -- -- 52
2019-05-28 21:00:00 11.7 13 Oeste 22 Oeste 0 -- -- 47
2019-05-28 20:00:00 14.5 9 Norte 24 Este 0 -- -- 52
2019-05-28 19:00:00 14 8 Sudeste 26 Este 0 -- -- 68
2019-05-28 18:00:00 15.3 14 Este 23 Este 0 -- -- 66
2019-05-28 17:00:00 13.3 6 Sudeste 21 Este 0 -- -- 73
2019-05-28 16:00:00 13.8 15 Este 31 Nordeste 0 -- -- 70
2019-05-28 15:00:00 15.5 5 Sudeste 27 Este 0 -- -- 61
2019-05-28 14:00:00 15.9 10 Sudeste 28 Este 0 -- -- 62
2019-05-28 13:00:00 16.5 10 Sudeste 34 Este 0 -- -- 63
2019-05-28 12:00:00 16.7 17 Este 31 Este 0 -- -- 59
2019-05-28 11:00:00 16.2 12 Este 24 Este 0 -- -- 50
2019-05-28 10:00:00 14.7 6 Este 13 Sudeste 0 -- -- 54
2019-05-28 09:00:00 11 3 Sudeste 6 Sudeste 0 -- -- 72
2019-05-28 08:00:00 7.2 2 Oeste 6 Sudoeste 0 -- -- 89
2019-05-28 07:00:00 6.6 2 Nordeste 7 Nordeste 0 -- -- 92
2019-05-28 06:00:00 6.4 3 Norte 5 Noroeste 0 -- -- 90
2019-05-28 05:00:00 7.1 0 Calma 10 Norte 0 -- -- 85
2019-05-28 04:00:00 8.2 4 Noroeste 10 Norte 0 -- -- 86
2019-05-28 03:00:00 8.1 0 Calma 8 Noroeste 0 -- -- 87
2019-05-28 02:00:00 8.3 0 Calma 14 Este 0 -- -- 92
2019-05-28 01:00:00 8.7 4 Este 18 Noroeste 0 -- -- 83
2019-05-28 00:00:00 9.5 6 Noroeste 12 Norte 0 -- -- 79